Time;durP1;ratioP1;P1;durP2;ratioP2;P2;SDS_P1;SDS_P2;PMS_P1;PMS_P2;Temp;Humidity;BMP_temperature;BMP_pressure;BME280_temperature;BME280_humidity;BME280_pressure;Samples;Min_cycle;Max_cycle;Signal;HPM_P1;HPM_P2
2021/05/13 00:00:12;;;;;;;3.23;1.68;;;;;;;11.06;66.92;98983.94;129997;1101;23426;-65
2021/05/13 00:02:40;;;;;;;2.50;1.73;;;;;;;11.03;67.04;98975.48;130015;1101;22556;-65
2021/05/13 00:05:09;;;;;;;5.38;1.83;;;;;;;11.00;67.26;98979.58;129914;1102;22596;-65
2021/05/13 00:07:38;;;;;;;1.40;1.23;;;;;;;10.96;67.52;98992.14;130039;1101;22606;-64
2021/05/13 00:10:11;;;;;;;5.75;1.73;;;;;;;10.92;67.51;98991.05;129997;1101;22607;-65
2021/05/13 00:12:52;;;;;;;3.50;1.50;;;;;;;10.89;67.84;98986.95;129725;1101;22983;-65
2021/05/13 00:15:22;;;;;;;3.03;1.73;;;;;;;10.88;67.93;98979.86;129981;1101;22986;-66
2021/05/13 00:17:51;;;;;;;2.68;1.75;;;;;;;10.88;67.89;98984.49;130048;1101;22566;-66
2021/05/13 00:20:27;;;;;;;4.85;2.20;;;;;;;10.87;68.03;98978.22;129972;1101;23413;-65
2021/05/13 00:22:55;;;;;;;3.48;1.48;;;;;;;10.85;67.99;98971.41;129899;1101;22701;-66
2021/05/13 00:25:24;;;;;;;5.15;1.68;;;;;;;10.81;67.94;98968.44;129986;1101;22651;-66
2021/05/13 00:27:52;;;;;;;2.78;1.73;;;;;;;10.77;68.17;98967.33;130044;1101;22546;-66
2021/05/13 00:30:21;;;;;;;3.07;1.43;;;;;;;10.75;68.21;98969.52;130294;1098;22537;-65
2021/05/13 00:32:50;;;;;;;5.33;1.85;;;;;;;10.73;68.43;98968.96;130195;1098;22660;-65
2021/05/13 00:35:18;;;;;;;2.63;1.55;;;;;;;10.71;68.68;98965.69;130194;1099;22628;-64
2021/05/13 00:37:47;;;;;;;2.58;1.63;;;;;;;10.67;68.84;98964.62;130255;1098;22531;-65
2021/05/13 00:40:17;;;;;;;3.75;1.88;;;;;;;10.66;68.69;98960.26;130252;1098;22660;-64
2021/05/13 00:42:45;;;;;;;3.18;1.70;;;;;;;10.63;69.00;98956.16;130200;1098;23265;-64
2021/05/13 00:45:15;;;;;;;2.50;1.80;;;;;;;10.59;69.12;98957.78;130119;1098;22558;-64
2021/05/13 00:48:06;;;;;;;2.50;1.50;;;;;;;10.57;69.19;98954.52;130277;1098;22540;-64
2021/05/13 00:50:33;;;;;;;5.30;1.70;;;;;;;10.54;69.21;98956.95;130246;1098;22675;-64
2021/05/13 00:53:05;;;;;;;2.85;1.78;;;;;;;10.50;69.14;98948.53;130216;1098;22630;-64
2021/05/13 00:55:35;;;;;;;3.40;1.70;;;;;;;10.47;69.45;98943.63;130356;1098;22539;-64
2021/05/13 00:58:04;;;;;;;3.03;1.70;;;;;;;10.45;69.71;98939.53;130266;1098;22563;-66
2021/05/13 01:03:01;;;;;;;2.85;1.50;;;;;;;10.41;69.94;98935.70;130278;1098;23346;-66
2021/05/13 01:05:30;;;;;;;2.05;1.50;;;;;;;10.32;70.20;98923.73;130243;1098;22671;-65
2021/05/13 01:07:59;;;;;;;5.10;1.75;;;;;;;10.40;70.28;98934.06;130232;1098;22549;-65
2021/05/13 01:10:28;;;;;;;4.63;1.40;;;;;;;10.39;70.14;98937.91;130257;1098;22654;-65
2021/05/13 01:13:01;;;;;;;2.23;1.70;;;;;;;10.38;70.46;98937.09;130235;1098;22632;-65
2021/05/13 01:15:43;;;;;;;3.25;1.70;;;;;;;10.38;70.39;98939.00;130272;1098;22508;-64
2021/05/13 01:18:23;;;;;;;1.88;1.53;;;;;;;10.33;70.35;98931.63;130209;1098;22747;-64
2021/05/13 01:20:52;;;;;;;4.43;1.98;;;;;;;10.30;70.30;98940.33;130279;1098;24861;-65
2021/05/13 01:23:20;;;;;;;2.40;1.77;;;;;;;10.23;70.53;98935.16;130177;1098;22540;-65
2021/05/13 01:25:52;;;;;;;2.55;1.50;;;;;;;10.27;70.49;98947.13;130267;1098;23607;-65
2021/05/13 01:28:26;;;;;;;3.98;1.73;;;;;;;10.27;70.86;98952.58;130236;1098;22531;-65
2021/05/13 01:30:55;;;;;;;2.03;1.43;;;;;;;10.28;70.66;98940.59;130051;1101;22635;-65
2021/05/13 01:33:24;;;;;;;3.88;1.50;;;;;;;10.29;70.61;98944.14;130309;1098;22670;-65
2021/05/13 01:35:53;;;;;;;2.13;1.78;;;;;;;10.32;70.88;98942.78;130187;1098;22685;-65
2021/05/13 01:38:23;;;;;;;3.68;2.50;;;;;;;10.32;70.99;98938.16;130274;1098;22523;-65
2021/05/13 01:40:59;;;;;;;3.07;1.73;;;;;;;10.33;71.05;98933.53;130073;1099;22547;-66
2021/05/13 01:43:28;;;;;;;6.47;1.90;;;;;;;10.33;71.32;98934.35;130025;1098;22551;-66
2021/05/13 01:45:59;;;;;;;3.80;1.95;;;;;;;10.31;71.22;98930.26;130088;1099;22690;-65
2021/05/13 01:48:28;;;;;;;3.23;2.23;;;;;;;10.29;71.19;98922.36;130003;1100;22700;-65
2021/05/13 01:50:56;;;;;;;3.20;2.25;;;;;;;10.26;71.34;98920.98;130038;1101;23352;-65
2021/05/13 01:53:25;;;;;;;3.83;2.10;;;;;;;10.23;71.38;98927.00;130090;1099;22583;-65
2021/05/13 01:55:54;;;;;;;2.87;2.10;;;;;;;10.22;71.57;98924.55;130268;1098;22566;-65
2021/05/13 01:58:22;;;;;;;3.77;1.80;;;;;;;10.21;71.54;98926.45;130238;1098;23329;-65
2021/05/13 02:00:50;;;;;;;4.55;2.10;;;;;;;10.21;71.84;98926.45;130205;1098;23654;-65
2021/05/13 02:03:19;;;;;;;3.43;2.23;;;;;;;10.21;71.85;98931.08;130281;1098;22584;-66
2021/05/13 02:05:48;;;;;;;4.35;2.18;;;;;;;10.18;71.76;98926.98;130048;1098;23147;-65
2021/05/13 02:08:16;;;;;;;3.80;2.10;;;;;;;10.13;71.69;98934.27;130262;1098;22549;-65
2021/05/13 02:10:44;;;;;;;2.67;1.90;;;;;;;10.09;71.88;98933.20;130283;1098;22527;-65
2021/05/13 02:13:13;;;;;;;4.90;2.40;;;;;;;10.08;72.03;98940.55;130314;1098;23311;-65
2021/05/13 02:16:01;;;;;;;5.30;2.23;;;;;;;10.03;71.81;98945.15;130131;1098;22709;-65
2021/05/13 02:18:31;;;;;;;3.30;2.40;;;;;;;9.98;72.43;98942.41;130241;1098;23213;-65
2021/05/13 02:20:59;;;;;;;3.10;2.30;;;;;;;9.97;72.73;98938.86;130258;1098;22687;-66
2021/05/13 02:23:28;;;;;;;3.10;2.40;;;;;;;9.95;72.76;98942.96;130053;1101;22557;-65
2021/05/13 02:25:56;;;;;;;4.43;2.20;;;;;;;9.94;72.72;98944.86;130237;1098;22576;-65
2021/05/13 02:28:24;;;;;;;8.75;2.63;;;;;;;9.92;72.97;98925.27;130302;1098;23553;-65
2021/05/13 02:30:53;;;;;;;4.07;3.17;;;;;;;9.93;73.21;98929.63;130008;1100;22694;-66
2021/05/13 02:33:21;;;;;;;9.33;5.25;;;;;;;9.91;72.99;98934.52;130261;1098;22642;-66
2021/05/13 02:35:50;;;;;;;8.20;6.67;;;;;;;9.89;73.02;98928.52;130279;1098;22571;-65
2021/05/13 02:38:18;;;;;;;10.50;9.30;;;;;;;9.87;73.53;98925.23;130268;1098;22566;-65
2021/05/13 02:40:47;;;;;;;11.15;7.60;;;;;;;9.85;73.30;98920.06;130262;1098;22633;-65
2021/05/13 02:43:15;;;;;;;12.53;8.50;;;;;;;9.85;73.43;98927.41;130168;1099;22556;-65
2021/05/13 02:45:44;;;;;;;11.18;7.40;;;;;;;9.86;73.58;98931.77;130262;1098;22583;-65
2021/05/13 02:48:12;;;;;;;12.05;5.55;;;;;;;9.85;73.21;98932.84;130226;1098;22554;-65
2021/05/13 02:50:41;;;;;;;12.33;6.73;;;;;;;9.85;73.41;98924.69;130228;1098;22721;-65
2021/05/13 02:53:09;;;;;;;10.40;5.08;;;;;;;9.85;73.83;98930.13;130199;1098;23287;-65
2021/05/13 02:55:38;;;;;;;7.10;3.90;;;;;;;9.86;73.38;98931.77;130259;1098;22639;-66
2021/05/13 02:58:06;;;;;;;4.17;3.70;;;;;;;9.86;73.86;98934.48;129920;1101;22622;-66
2021/05/13 03:00:38;;;;;;;5.80;3.60;;;;;;;9.85;73.84;98930.13;130352;1098;22543;-66
2021/05/13 03:03:07;;;;;;;6.17;3.83;;;;;;;9.83;73.69;98935.83;130241;1098;22540;-66
2021/05/13 03:05:35;;;;;;;6.50;4.20;;;;;;;9.83;73.89;98938.55;130276;1098;22654;-66
2021/05/13 03:08:04;;;;;;;4.50;3.80;;;;;;;9.84;74.25;98937.47;130307;1098;22507;-66
2021/05/13 03:10:42;;;;;;;6.73;3.73;;;;;;;9.83;74.02;98943.99;130326;1098;23536;-66
2021/05/13 03:13:14;;;;;;;5.53;3.70;;;;;;;9.85;74.36;98941.02;129992;1101;23181;-66
2021/05/13 03:15:43;;;;;;;7.73;3.53;;;;;;;9.85;74.68;98939.11;130202;1098;23238;-66
2021/05/13 03:18:11;;;;;;;5.20;3.88;;;;;;;9.90;74.71;98941.85;130237;1098;22681;-65
2021/05/13 03:20:47;;;;;;;5.13;3.37;;;;;;;9.97;74.93;98935.32;130304;1098;22507;-65
2021/05/13 03:23:15;;;;;;;6.95;3.40;;;;;;;10.03;74.36;98932.36;130251;1098;22569;-65
2021/05/13 03:25:48;;;;;;;5.03;3.73;;;;;;;10.08;74.24;98935.11;130335;1098;22649;-65
2021/05/13 03:28:16;;;;;;;4.95;3.93;;;;;;;10.12;74.09;98936.17;130262;1098;22650;-65
2021/05/13 03:30:45;;;;;;;4.40;3.83;;;;;;;10.17;74.37;98946.27;130273;1098;22613;-65
2021/05/13 03:33:14;;;;;;;6.37;3.43;;;;;;;10.21;74.38;98939.23;130308;1098;22538;-65
2021/05/13 03:35:42;;;;;;;4.58;3.43;;;;;;;10.24;74.61;98936.77;130295;1098;23262;-66
2021/05/13 03:38:11;;;;;;;3.77;3.40;;;;;;;10.25;74.38;98932.14;130243;1098;22649;-65
2021/05/13 03:40:40;;;;;;;8.05;3.48;;;;;;;10.27;74.28;98941.69;130186;1098;22618;-66
2021/05/13 03:43:09;;;;;;;9.77;4.23;;;;;;;10.31;74.19;98944.69;130024;1100;22664;-66
2021/05/13 03:45:38;;;;;;;5.97;3.37;;;;;;;10.34;74.06;98946.06;130218;1098;22525;-66
2021/05/13 03:48:07;;;;;;;5.73;2.90;;;;;;;10.38;74.60;98944.44;130296;1098;22585;-65
2021/05/13 03:50:36;;;;;;;4.43;3.60;;;;;;;10.42;74.38;98942.79;130365;1098;22611;-64
2021/05/13 03:53:05;;;;;;;5.28;3.45;;;;;;;10.46;74.35;98949.34;130235;1098;22631;-64
2021/05/13 03:55:34;;;;;;;3.73;3.33;;;;;;;10.49;74.45;98949.62;130307;1098;22586;-64
2021/05/13 03:58:05;;;;;;;8.28;4.33;;;;;;;10.54;74.58;98956.95;130203;1098;22626;-65
2021/05/13 04:03:14;;;;;;;5.35;3.43;;;;;;;10.63;74.32;98953.44;130083;1098;22584;-64
2021/05/13 04:05:42;;;;;;;4.03;3.23;;;;;;;10.69;74.09;98956.14;130041;1100;22545;-64
2021/05/13 04:08:12;;;;;;;4.63;3.18;;;;;;;10.73;73.87;98954.52;129997;1100;22668;-64
2021/05/13 04:10:41;;;;;;;4.85;3.53;;;;;;;10.77;73.54;98952.89;130016;1098;22594;-65
2021/05/13 04:13:10;;;;;;;5.20;3.43;;;;;;;10.81;73.38;98952.08;130095;1100;22528;-64
2021/05/13 04:15:53;;;;;;;5.25;2.80;;;;;;;10.86;72.88;98953.97;129987;1101;23434;-64
2021/05/13 04:18:22;;;;;;;4.78;3.43;;;;;;;10.89;72.73;98943.34;130072;1100;23770;-64
2021/05/13 04:20:50;;;;;;;6.08;4.10;;;;;;;10.93;72.46;98941.71;130007;1100;22545;-65
2021/05/13 04:23:18;;;;;;;7.90;3.78;;;;;;;10.98;72.11;98941.69;130028;1101;22859;-65
2021/05/13 04:25:48;;;;;;;5.58;3.83;;;;;;;11.00;72.09;98946.86;130032;1100;22587;-65
2021/05/13 04:28:16;;;;;;;6.73;4.35;;;;;;;11.05;72.10;98943.33;130050;1100;22721;-65
2021/05/13 04:30:44;;;;;;;6.53;4.35;;;;;;;11.12;71.76;98949.30;130016;1100;23569;-65
2021/05/13 04:33:14;;;;;;;12.28;4.48;;;;;;;11.20;71.43;98940.57;130013;1100;22671;-66
2021/05/13 04:35:42;;;;;;;8.93;3.73;;;;;;;11.26;70.87;98942.17;129988;1100;22620;-65
2021/05/13 04:38:15;;;;;;;9.98;3.90;;;;;;;11.33;70.67;98942.72;130038;1100;22634;-65
2021/05/13 04:40:43;;;;;;;5.98;4.10;;;;;;;11.42;70.32;98948.41;126913;1093;26328;-69
2021/05/13 04:43:12;;;;;;;6.53;4.83;;;;;;;11.49;69.84;98947.03;130085;1101;22559;-70
2021/05/13 04:45:40;;;;;;;7.30;4.30;;;;;;;11.57;69.15;98943.72;130030;1098;22585;-69
2021/05/13 04:48:15;;;;;;;7.15;4.28;;;;;;;11.59;68.52;98941.53;130048;1101;22592;-69
2021/05/13 04:50:44;;;;;;;11.80;6.23;;;;;;;11.66;68.69;98942.06;130019;1099;23407;-68
2021/05/13 04:53:14;;;;;;;9.00;5.83;;;;;;;11.69;68.12;98944.21;130054;1101;23401;-68
2021/05/13 04:55:43;;;;;;;6.73;4.70;;;;;;;11.74;67.74;98945.30;130021;1099;22598;-70
2021/05/13 04:58:14;;;;;;;22.88;7.20;;;;;;;11.77;67.34;98948.32;130029;1100;23362;-68
2021/05/13 05:00:43;;;;;;;19.38;5.90;;;;;;;11.82;67.17;98942.03;130057;1099;22624;-69
2021/05/13 05:03:11;;;;;;;6.48;4.28;;;;;;;11.85;67.08;98935.98;130053;1098;22718;-69
2021/05/13 05:05:40;;;;;;;8.63;4.73;;;;;;;11.86;66.56;98929.44;130054;1101;23250;-69
2021/05/13 05:08:08;;;;;;;15.63;4.60;;;;;;;11.93;66.90;98932.69;130103;1099;23181;-68
2021/05/13 05:10:37;;;;;;;56.53;7.30;;;;;;;11.99;66.31;98935.09;130096;1098;22607;-69
2021/05/13 05:13:05;;;;;;;14.48;4.60;;;;;;;12.05;66.63;98935.89;130248;1098;22548;-68
2021/05/13 05:15:35;;;;;;;8.05;4.18;;;;;;;12.09;66.51;98931.51;130265;1098;22631;-68
2021/05/13 05:18:04;;;;;;;12.65;4.13;;;;;;;12.16;66.32;98942.10;130200;1098;22578;-69
2021/05/13 05:20:32;;;;;;;21.88;4.90;;;;;;;12.19;66.49;98939.63;130291;1098;23446;-69
2021/05/13 05:23:01;;;;;;;7.28;4.53;;;;;;;12.26;65.81;98934.66;130195;1098;23141;-68
2021/05/13 05:25:29;;;;;;;9.20;4.83;;;;;;;12.28;65.67;98937.92;130173;1098;22728;-68
2021/05/13 05:27:57;;;;;;;8.48;3.80;;;;;;;12.33;65.65;98932.44;130258;1098;22597;-69
2021/05/13 05:30:26;;;;;;;7.30;4.00;;;;;;;12.41;65.95;98935.68;130263;1098;22526;-69
2021/05/13 05:32:54;;;;;;;8.75;3.88;;;;;;;12.51;65.82;98927.40;130273;1098;23206;-69
2021/05/13 05:35:23;;;;;;;6.90;4.53;;;;;;;12.59;65.45;98924.05;130292;1098;22576;-69
2021/05/13 05:37:51;;;;;;;5.58;4.28;;;;;;;12.68;64.24;98925.08;130297;1098;22543;-68
2021/05/13 05:40:23;;;;;;;7.10;4.38;;;;;;;12.74;64.17;98921.19;130267;1098;22479;-65
2021/05/13 05:42:51;;;;;;;11.93;3.90;;;;;;;12.81;64.15;98927.15;130257;1098;23355;-66
2021/05/13 05:45:20;;;;;;;6.68;3.98;;;;;;;12.87;64.11;98923.25;130280;1098;22622;-66
2021/05/13 05:47:49;;;;;;;8.65;3.60;;;;;;;12.95;64.04;98919.09;129992;1100;22542;-66
2021/05/13 05:50:19;;;;;;;9.97;4.17;;;;;;;13.05;63.79;98927.19;130243;1098;22551;-67
2021/05/13 05:52:47;;;;;;;9.13;4.13;;;;;;;13.14;63.71;98922.70;130253;1098;22663;-66
2021/05/13 05:55:18;;;;;;;5.58;3.73;;;;;;;13.23;62.50;98923.76;130222;1098;24603;-67
2021/05/13 05:57:47;;;;;;;15.63;3.98;;;;;;;13.32;62.36;98921.19;130022;1098;23324;-66
2021/05/13 06:00:15;;;;;;;5.98;3.05;;;;;;;13.39;61.60;98922.48;130170;1098;22507;-71
2021/05/13 06:02:45;;;;;;;6.78;3.90;;;;;;;13.48;61.45;98924.57;130200;1098;22584;-69
2021/05/13 06:05:14;;;;;;;6.08;3.48;;;;;;;13.55;61.40;98925.05;130169;1098;22533;-66
2021/05/13 06:07:44;;;;;;;5.48;3.53;;;;;;;13.62;61.40;98929.05;130275;1098;22651;-66
2021/05/13 06:10:13;;;;;;;6.23;2.88;;;;;;;13.69;60.61;98926.78;130269;1098;23037;-66
2021/05/13 06:12:41;;;;;;;17.88;3.05;;;;;;;13.71;59.92;98921.81;130023;1100;22568;-66
2021/05/13 06:15:12;;;;;;;20.75;3.28;;;;;;;13.73;59.26;98924.25;130001;1098;23129;-66
2021/05/13 06:17:40;;;;;;;4.30;2.70;;;;;;;13.74;59.62;98928.63;130200;1098;22626;-66
2021/05/13 06:20:16;;;;;;;5.53;2.53;;;;;;;13.75;58.87;98925.59;130151;1098;22593;-69
2021/05/13 06:22:44;;;;;;;10.30;2.80;;;;;;;13.79;58.32;98923.91;130006;1099;22586;-66
2021/05/13 06:25:13;;;;;;;4.70;2.20;;;;;;;13.86;58.21;98925.45;130165;1098;22603;-66
2021/05/13 06:27:43;;;;;;;2.98;1.98;;;;;;;13.94;58.28;98931.11;130218;1098;22560;-67
2021/05/13 06:30:14;;;;;;;4.88;2.25;;;;;;;14.02;58.15;98926.89;130164;1098;22552;-67
2021/05/13 06:32:45;;;;;;;5.45;2.68;;;;;;;14.12;57.62;98921.29;130252;1098;23055;-67
2021/05/13 06:35:15;;;;;;;15.08;2.40;;;;;;;14.22;57.23;98923.88;130185;1098;23478;-67
2021/05/13 06:37:44;;;;;;;51.90;10.93;;;;;;;14.33;56.77;98928.08;130231;1098;22583;-67
2021/05/13 06:40:14;;;;;;;6.45;2.00;;;;;;;14.44;55.98;98931.51;130251;1098;24255;-69
2021/05/13 06:42:42;;;;;;;24.40;2.30;;;;;;;14.54;55.20;98939.59;130261;1098;22752;-70
2021/05/13 06:45:11;;;;;;;3.75;1.40;;;;;;;14.61;54.08;98934.53;130238;1098;22739;-70
2021/05/13 06:47:40;;;;;;;5.20;1.50;;;;;;;14.66;53.96;98941.88;130255;1098;22623;-69
2021/05/13 06:50:09;;;;;;;2.65;1.33;;;;;;;14.66;53.77;98937.20;130203;1098;22678;-69
2021/05/13 06:52:39;;;;;;;3.10;1.70;;;;;;;14.62;53.10;98935.34;130239;1098;22790;-70
2021/05/13 06:55:08;;;;;;;4.95;1.70;;;;;;;14.58;53.81;98929.64;129994;1101;23415;-70
2021/05/13 06:57:36;;;;;;;4.30;1.55;;;;;;;14.56;53.21;98934.63;130144;1098;22521;-70
2021/05/13 07:00:05;;;;;;;5.25;1.53;;;;;;;14.53;53.01;98931.66;130289;1098;22641;-69
2021/05/13 07:02:35;;;;;;;2.65;1.60;;;;;;;14.47;53.13;98925.44;130170;1098;22624;-70
2021/05/13 07:05:04;;;;;;;4.88;1.60;;;;;;;14.47;53.89;98933.66;130006;1101;22563;-70
2021/05/13 07:07:38;;;;;;;3.45;1.45;;;;;;;14.49;53.38;98931.44;130186;1098;22575;-70
2021/05/13 07:10:08;;;;;;;3.60;1.73;;;;;;;14.56;53.26;98917.38;130293;1098;22638;-70
2021/05/13 07:12:37;;;;;;;9.58;2.10;;;;;;;14.63;54.53;98915.05;130170;1098;22642;-69
2021/05/13 07:15:18;;;;;;;11.88;2.68;;;;;;;14.74;54.01;98913.75;130246;1098;22568;-70
2021/05/13 07:17:47;;;;;;;6.30;2.20;;;;;;;14.81;54.51;98916.94;130168;1098;23244;-70
2021/05/13 07:20:16;;;;;;;9.03;2.05;;;;;;;14.87;54.24;98915.72;130247;1098;23250;-70
2021/05/13 07:22:44;;;;;;;5.23;2.23;;;;;;;14.93;53.85;98913.71;130242;1098;22666;-69
2021/05/13 07:25:12;;;;;;;6.28;1.98;;;;;;;14.96;53.21;98907.63;130023;1101;22539;-70
2021/05/13 07:27:41;;;;;;;4.35;2.08;;;;;;;14.97;53.69;98901.03;130175;1098;23365;-69
2021/05/13 07:30:11;;;;;;;2.40;1.75;;;;;;;14.98;53.74;98897.17;130256;1098;22656;-69
2021/05/13 07:32:39;;;;;;;6.90;1.60;;;;;;;14.97;53.92;98893.61;130182;1098;22586;-69
2021/05/13 07:35:08;;;;;;;5.70;1.98;;;;;;;15.00;54.36;98912.22;130354;1097;22733;-69
2021/05/13 07:37:37;;;;;;;2.80;1.88;;;;;;;15.04;52.33;98907.73;130377;1097;22636;-70
2021/05/13 07:40:07;;;;;;;3.28;2.00;;;;;;;15.04;52.38;98902.25;130321;1097;22550;-67
2021/05/13 07:42:35;;;;;;;9.53;1.95;;;;;;;15.05;53.06;98908.55;130387;1097;22565;-67
2021/05/13 07:45:05;;;;;;;5.58;2.03;;;;;;;15.04;52.75;98915.97;130351;1097;22542;-67
2021/05/13 07:47:37;;;;;;;3.73;2.20;;;;;;;15.00;52.59;98914.97;130356;1098;22543;-67
2021/05/13 07:50:10;;;;;;;3.15;2.18;;;;;;;14.93;52.27;98906.30;130316;1097;22610;-71
2021/05/13 07:52:39;;;;;;;2.88;1.55;;;;;;;14.90;52.47;98911.56;130386;1098;23499;-68
2021/05/13 07:55:08;;;;;;;2.35;1.30;;;;;;;14.85;52.47;98909.75;130361;1097;23922;-69
2021/05/13 07:57:37;;;;;;;2.10;1.20;;;;;;;14.83;52.20;98911.97;130404;1097;23614;-72
2021/05/13 08:00:07;;;;;;;120.58;10.23;;;;;;;14.77;52.95;98910.42;130335;1097;22972;-69
2021/05/13 08:02:44;;;;;;;14.28;1.85;;;;;;;14.75;52.59;98907.16;130353;1097;22547;-70
2021/05/13 08:05:13;;;;;;;4.90;1.38;;;;;;;14.77;52.71;98902.19;130295;1098;22597;-68
2021/05/13 08:07:42;;;;;;;4.18;1.38;;;;;;;14.80;52.69;98899.67;130395;1095;22598;-68
2021/05/13 08:10:11;;;;;;;7.55;1.68;;;;;;;14.77;52.19;98904.94;130341;1097;22528;-68
2021/05/13 08:12:40;;;;;;;6.98;2.33;;;;;;;14.76;52.35;98904.12;130354;1098;22521;-69
2021/05/13 08:15:11;;;;;;;3.28;1.85;;;;;;;14.79;53.00;98908.20;130353;1097;22584;-68
2021/05/13 08:17:40;;;;;;;39.33;3.90;;;;;;;14.85;51.78;98910.56;130401;1098;22538;-68
2021/05/13 08:20:11;;;;;;;8.83;2.35;;;;;;;14.93;52.21;98902.74;130335;1098;23224;-68
2021/05/13 08:22:43;;;;;;;9.95;2.50;;;;;;;14.98;51.41;98908.15;130397;1098;23656;-68
2021/05/13 08:26:57;;;;;;;6.55;1.90;;;;;;;15.06;51.01;98912.92;125613;1091;22792;-68
2021/05/13 08:29:26;;;;;;;4.60;1.70;;;;;;;15.10;51.12;98912.03;129750;1101;22642;-68
2021/05/13 08:31:55;;;;;;;14.43;2.83;;;;;;;15.13;51.20;98911.43;129979;1101;23429;-68
2021/05/13 08:34:23;;;;;;;4.60;1.60;;;;;;;15.18;50.71;98902.27;129879;1101;22576;-68
2021/05/13 08:36:51;;;;;;;8.60;1.85;;;;;;;15.23;50.93;98912.34;130371;1098;22558;-67
2021/05/13 08:39:24;;;;;;;3.13;1.65;;;;;;;15.27;50.55;98910.63;130407;1098;22547;-67
2021/05/13 08:41:53;;;;;;;7.25;1.75;;;;;;;15.26;51.21;98903.52;130390;1097;22561;-68
2021/05/13 08:44:21;;;;;;;2.25;1.50;;;;;;;15.24;50.07;98908.48;130375;1098;22548;-67
2021/05/13 08:46:50;;;;;;;4.68;2.03;;;;;;;15.23;50.67;98906.86;130355;1098;22592;-68
2021/05/13 08:49:19;;;;;;;2.88;1.40;;;;;;;15.23;50.15;98887.65;130356;1098;22630;-68
2021/05/13 08:51:48;;;;;;;5.05;2.00;;;;;;;15.24;50.00;98903.00;130356;1098;22539;-68
2021/05/13 08:54:17;;;;;;;4.05;1.70;;;;;;;15.29;50.37;98911.14;130352;1098;22663;-68
2021/05/13 08:56:47;;;;;;;2.38;1.63;;;;;;;15.28;49.75;98904.03;130337;1098;23359;-67
2021/05/13 08:59:16;;;;;;;3.88;1.40;;;;;;;15.28;50.60;98895.80;130380;1098;23135;-68
2021/05/13 09:01:58;;;;;;;9.60;1.93;;;;;;;15.31;50.17;98906.14;130364;1098;22730;-68
2021/05/13 09:04:37;;;;;;;39.10;3.40;;;;;;;15.35;48.80;98902.49;130429;1098;22668;-68
2021/05/13 09:07:13;;;;;;;13.63;2.18;;;;;;;15.41;48.83;98904.03;130379;1098;22567;-69
2021/05/13 09:10:17;;;;;;;7.45;2.00;;;;;;;15.44;48.79;98899.84;130371;1098;22606;-68
2021/05/13 09:12:49;;;;;;;12.08;1.98;;;;;;;15.48;49.16;98903.61;130328;1098;22574;-68
2021/05/13 09:15:19;;;;;;;4.95;2.00;;;;;;;15.53;49.07;98907.08;130322;1098;22572;-68
2021/05/13 09:18:01;;;;;;;6.58;1.75;;;;;;;15.59;48.21;98894.07;130272;1098;23527;-68
2021/05/13 09:20:38;;;;;;;4.78;1.63;;;;;;;15.60;48.37;98895.70;130287;1098;22746;-68
2021/05/13 09:23:10;;;;;;;14.45;2.53;;;;;;;15.61;48.01;98894.58;130298;1098;23891;-68
2021/05/13 09:25:39;;;;;;;8.63;1.87;;;;;;;15.60;48.24;98889.39;130343;1098;22545;-68
2021/05/13 09:28:08;;;;;;;2.13;1.63;;;;;;;15.57;48.17;98895.52;130361;1098;22573;-68
2021/05/13 09:30:36;;;;;;;3.08;1.80;;;;;;;15.54;49.08;98894.16;130328;1098;23212;-68
2021/05/13 09:33:05;;;;;;;7.98;2.43;;;;;;;15.57;49.71;98890.03;130322;1098;22533;-68
2021/05/13 09:35:35;;;;;;;2.95;1.95;;;;;;;15.61;50.26;98897.33;130366;1098;22580;-68
2021/05/13 09:38:04;;;;;;;2.45;1.58;;;;;;;15.65;49.86;98892.86;130310;1098;22560;-68
2021/05/13 09:40:35;;;;;;;1.90;1.53;;;;;;;15.66;49.56;98893.67;127633;1093;22744;-70
2021/05/13 09:43:10;;;;;;;5.63;1.90;;;;;;;15.66;49.94;98901.91;130283;1098;22563;-70
2021/05/13 09:45:47;;;;;;;4.83;2.20;;;;;;;15.65;49.25;98894.80;130356;1098;23126;-71
2021/05/13 09:48:36;;;;;;;6.05;1.60;;;;;;;15.62;48.76;98896.21;130283;1097;22598;-70
2021/05/13 09:51:23;;;;;;;30.33;4.78;;;;;;;15.63;48.60;98894.28;130400;1098;22505;-70
2021/05/13 09:54:06;;;;;;;6.93;1.58;;;;;;;15.65;49.07;98889.30;130317;1098;22529;-71
2021/05/13 09:56:36;;;;;;;5.48;1.50;;;;;;;15.73;49.00;98888.56;130353;1098;22787;-70
2021/05/13 09:59:24;;;;;;;7.53;2.10;;;;;;;15.78;47.76;98888.47;130293;1098;23499;-70
2021/05/13 10:01:54;;;;;;;5.00;1.55;;;;;;;15.80;48.20;98898.03;130371;1098;22553;-70
2021/05/13 10:04:23;;;;;;;10.78;1.85;;;;;;;15.84;48.48;98896.30;130286;1098;23186;-69
2021/05/13 10:06:52;;;;;;;4.58;2.20;;;;;;;15.90;48.67;98900.55;130348;1098;22568;-70
2021/05/13 10:09:21;;;;;;;2.93;2.15;;;;;;;15.97;48.19;98893.84;130325;1098;22643;-68
2021/05/13 10:11:52;;;;;;;4.83;1.80;;;;;;;16.03;48.21;98895.33;130338;1098;22666;-70
2021/05/13 10:14:21;;;;;;;1.78;1.50;;;;;;;16.05;47.92;98884.84;130271;1098;22570;-70
2021/05/13 10:16:50;;;;;;;4.90;1.68;;;;;;;16.06;48.52;98892.78;130278;1098;22644;-69
2021/05/13 10:19:42;;;;;;;3.58;1.73;;;;;;;16.07;48.89;98888.92;130282;1098;22539;-71
2021/05/13 10:22:14;;;;;;;24.53;3.65;;;;;;;16.12;49.40;98888.81;130338;1098;22537;-71
2021/05/13 10:24:43;;;;;;;4.60;2.30;;;;;;;16.20;48.37;98881.75;130256;1098;22580;-69
2021/05/13 10:27:19;;;;;;;3.40;2.55;;;;;;;16.29;48.90;98862.60;130317;1097;22569;-70
2021/05/13 10:29:59;;;;;;;7.48;2.38;;;;;;;16.40;48.88;98872.22;130234;1098;22709;-71
2021/05/13 10:32:31;;;;;;;1.73;1.50;;;;;;;16.50;47.77;98864.53;130338;1098;22632;-69
2021/05/13 10:35:07;;;;;;;5.65;2.00;;;;;;;16.53;46.31;98854.84;130282;1098;23435;-69
2021/05/13 10:37:41;;;;;;;10.80;2.30;;;;;;;16.51;46.83;98863.41;130348;1098;22592;-70
2021/05/13 10:40:22;;;;;;;5.73;2.15;;;;;;;16.49;47.21;98856.59;130311;1098;22612;-69
2021/05/13 10:43:04;;;;;;;2.88;1.68;;;;;;;16.47;46.31;98861.58;130328;1098;22564;-70
2021/05/13 10:45:33;;;;;;;4.00;1.70;;;;;;;16.41;46.22;98865.60;130263;1098;22566;-70
2021/05/13 10:48:27;;;;;;;2.27;1.70;;;;;;;16.39;47.17;98854.91;130328;1098;22522;-71
2021/05/13 10:51:06;;;;;;;3.33;1.90;;;;;;;16.41;46.62;98852.66;130341;1098;23125;-69
2021/05/13 10:56:24;;;;;;;10.78;1.88;;;;;;;16.39;47.35;98849.41;130340;1098;23101;-70
2021/05/13 10:59:00;;;;;;;2.08;1.83;;;;;;;16.41;47.66;98849.91;130362;1098;22912;-70
2021/05/13 11:01:29;;;;;;;6.45;1.83;;;;;;;16.50;47.22;98849.96;130310;1098;22649;-69
2021/05/13 11:04:25;;;;;;;6.35;1.80;;;;;;;16.60;47.76;98860.70;130405;1098;22667;-70
2021/05/13 11:07:05;;;;;;;1.90;1.50;;;;;;;16.71;46.23;98862.13;130351;1098;22565;-70
2021/05/13 11:09:45;;;;;;;7.13;1.90;;;;;;;16.77;45.45;98846.28;130328;1098;22591;-70
2021/05/13 11:12:17;;;;;;;10.73;1.98;;;;;;;16.83;45.59;98850.53;130351;1098;22675;-70
2021/05/13 11:14:57;;;;;;;5.10;1.60;;;;;;;16.89;45.29;98852.00;130386;1098;23497;-71
2021/05/13 11:17:42;;;;;;;1.95;1.75;;;;;;;16.93;44.25;98856.57;130334;1098;23334;-70
2021/05/13 11:20:20;;;;;;;3.53;1.98;;;;;;;16.93;44.08;98861.26;130386;1098;23274;-69
2021/05/13 11:23:12;;;;;;;11.70;2.75;;;;;;;16.94;44.71;98858.20;130337;1098;22952;-69
2021/05/13 11:25:44;;;;;;;9.13;1.68;;;;;;;16.98;45.07;98857.57;130397;1098;22542;-69
2021/05/13 11:28:19;;;;;;;6.63;3.60;;;;;;;17.02;45.56;98842.88;130326;1098;22699;-69
2021/05/13 11:30:48;;;;;;;4.38;2.78;;;;;;;17.08;45.20;98858.09;130416;1098;22558;-69
2021/05/13 11:33:17;;;;;;;5.18;2.73;;;;;;;17.12;44.85;98861.85;130356;1098;22595;-70
2021/05/13 11:35:46;;;;;;;4.98;1.90;;;;;;;17.13;44.38;98855.22;130375;1098;22599;-70
2021/05/13 11:38:23;;;;;;;3.38;1.83;;;;;;;17.08;43.83;98846.28;130396;1097;23347;-69
2021/05/13 11:40:53;;;;;;;3.75;1.90;;;;;;;17.03;44.91;98847.22;130405;1098;22536;-69
2021/05/13 11:43:41;;;;;;;2.65;1.88;;;;;;;16.99;44.67;98851.75;130315;1098;22559;-70
2021/05/13 11:46:10;;;;;;;4.15;1.90;;;;;;;17.00;45.06;98849.81;130397;1098;22602;-70
2021/05/13 11:48:43;;;;;;;8.43;2.10;;;;;;;16.99;44.59;98843.50;130345;1098;22578;-70
2021/05/13 11:51:13;;;;;;;6.88;2.63;;;;;;;16.98;45.41;98852.88;130363;1098;22620;-69